sensor_id;sensor_type;location;lat;lon;timestamp;P1;durP1;ratioP1;P2;durP2;ratioP2
1380;SDS011;684;48.342;10.096;2023-07-31T00:01:36;5.93;;;2.50;;
1380;SDS011;684;48.342;10.096;2023-07-31T00:04:03;9.50;;;2.67;;
1380;SDS011;684;48.342;10.096;2023-07-31T00:06:30;6.43;;;2.40;;
1380;SDS011;684;48.342;10.096;2023-07-31T00:08:56;7.60;;;3.43;;
1380;SDS011;684;48.342;10.096;2023-07-31T00:11:23;6.17;;;2.63;;
1380;SDS011;684;48.342;10.096;2023-07-31T00:13:52;9.10;;;2.90;;
1380;SDS011;684;48.342;10.096;2023-07-31T00:16:19;7.13;;;2.70;;
1380;SDS011;684;48.342;10.096;2023-07-31T00:18:45;6.37;;;2.80;;
1380;SDS011;684;48.342;10.096;2023-07-31T00:21:12;10.13;;;2.97;;
1380;SDS011;684;48.342;10.096;2023-07-31T00:23:39;5.90;;;2.50;;
1380;SDS011;684;48.342;10.096;2023-07-31T00:26:05;5.83;;;2.23;;
1380;SDS011;684;48.342;10.096;2023-07-31T00:28:32;5.53;;;2.30;;
1380;SDS011;684;48.342;10.096;2023-07-31T00:31:00;7.73;;;1.93;;
1380;SDS011;684;48.342;10.096;2023-07-31T00:33:28;7.80;;;3.13;;
1380;SDS011;684;48.342;10.096;2023-07-31T00:35:55;7.00;;;2.57;;
1380;SDS011;684;48.342;10.096;2023-07-31T00:38:22;5.37;;;2.83;;
1380;SDS011;684;48.342;10.096;2023-07-31T00:40:49;5.83;;;2.50;;
1380;SDS011;684;48.342;10.096;2023-07-31T00:43:15;7.67;;;3.03;;
1380;SDS011;684;48.342;10.096;2023-07-31T00:45:42;7.00;;;3.10;;
1380;SDS011;684;48.342;10.096;2023-07-31T00:50:48;11.53;;;2.60;;
1380;SDS011;684;48.342;10.096;2023-07-31T00:53:15;8.63;;;3.13;;
1380;SDS011;684;48.342;10.096;2023-07-31T00:55:42;6.37;;;3.10;;
1380;SDS011;684;48.342;10.096;2023-07-31T00:58:09;5.50;;;2.73;;
1380;SDS011;684;48.342;10.096;2023-07-31T01:00:36;9.73;;;4.10;;
1380;SDS011;684;48.342;10.096;2023-07-31T01:03:02;6.60;;;3.60;;
1380;SDS011;684;48.342;10.096;2023-07-31T01:05:32;5.80;;;3.13;;
1380;SDS011;684;48.342;10.096;2023-07-31T01:08:10;10.40;;;3.90;;
1380;SDS011;684;48.342;10.096;2023-07-31T01:10:46;5.60;;;3.10;;
1380;SDS011;684;48.342;10.096;2023-07-31T01:13:16;8.40;;;2.70;;
1380;SDS011;684;48.342;10.096;2023-07-31T01:15:44;6.80;;;2.90;;
1380;SDS011;684;48.342;10.096;2023-07-31T01:18:11;6.47;;;3.10;;
1380;SDS011;684;48.342;10.096;2023-07-31T01:20:37;7.70;;;2.50;;
1380;SDS011;684;48.342;10.096;2023-07-31T01:26:04;5.77;;;3.10;;
1380;SDS011;684;48.342;10.096;2023-07-31T01:28:40;9.80;;;3.17;;
1380;SDS011;684;48.342;10.096;2023-07-31T01:31:14;6.67;;;2.50;;
1380;SDS011;684;48.342;10.096;2023-07-31T01:33:44;6.63;;;3.03;;
1380;SDS011;684;48.342;10.096;2023-07-31T01:36:12;10.40;;;2.53;;
1380;SDS011;684;48.342;10.096;2023-07-31T01:38:39;10.30;;;3.13;;
1380;SDS011;684;48.342;10.096;2023-07-31T01:41:07;8.40;;;2.67;;
1380;SDS011;684;48.342;10.096;2023-07-31T01:43:33;9.93;;;2.77;;
1380;SDS011;684;48.342;10.096;2023-07-31T01:46:00;5.77;;;2.93;;
1380;SDS011;684;48.342;10.096;2023-07-31T01:48:27;5.93;;;2.80;;
1380;SDS011;684;48.342;10.096;2023-07-31T01:50:54;7.17;;;2.80;;
1380;SDS011;684;48.342;10.096;2023-07-31T01:53:20;7.90;;;3.10;;
1380;SDS011;684;48.342;10.096;2023-07-31T01:55:47;7.07;;;2.93;;
1380;SDS011;684;48.342;10.096;2023-07-31T01:58:15;7.70;;;3.20;;
1380;SDS011;684;48.342;10.096;2023-07-31T02:00:42;7.90;;;3.17;;
1380;SDS011;684;48.342;10.096;2023-07-31T02:03:08;8.30;;;3.40;;
1380;SDS011;684;48.342;10.096;2023-07-31T02:05:35;8.10;;;3.70;;
1380;SDS011;684;48.342;10.096;2023-07-31T02:08:02;5.43;;;3.07;;
1380;SDS011;684;48.342;10.096;2023-07-31T02:10:29;8.70;;;3.10;;
1380;SDS011;684;48.342;10.096;2023-07-31T02:12:56;7.10;;;3.37;;
1380;SDS011;684;48.342;10.096;2023-07-31T02:15:24;6.70;;;3.27;;
1380;SDS011;684;48.342;10.096;2023-07-31T02:17:50;7.37;;;3.33;;
1380;SDS011;684;48.342;10.096;2023-07-31T02:20:17;8.07;;;3.40;;
1380;SDS011;684;48.342;10.096;2023-07-31T02:22:44;4.47;;;2.77;;
1380;SDS011;684;48.342;10.096;2023-07-31T02:25:11;7.33;;;3.00;;
1380;SDS011;684;48.342;10.096;2023-07-31T02:27:37;11.37;;;3.57;;
1380;SDS011;684;48.342;10.096;2023-07-31T02:30:04;11.03;;;3.60;;
1380;SDS011;684;48.342;10.096;2023-07-31T02:32:33;6.67;;;3.00;;
1380;SDS011;684;48.342;10.096;2023-07-31T02:35:00;8.97;;;4.67;;
1380;SDS011;684;48.342;10.096;2023-07-31T02:37:26;8.53;;;2.60;;
1380;SDS011;684;48.342;10.096;2023-07-31T02:39:54;8.40;;;3.30;;
1380;SDS011;684;48.342;10.096;2023-07-31T02:42:20;7.80;;;3.50;;
1380;SDS011;684;48.342;10.096;2023-07-31T02:44:47;11.73;;;4.00;;
1380;SDS011;684;48.342;10.096;2023-07-31T02:47:16;5.03;;;2.93;;
1380;SDS011;684;48.342;10.096;2023-07-31T02:49:44;6.87;;;3.03;;
1380;SDS011;684;48.342;10.096;2023-07-31T02:52:10;6.30;;;3.00;;
1380;SDS011;684;48.342;10.096;2023-07-31T02:54:37;6.47;;;3.00;;
1380;SDS011;684;48.342;10.096;2023-07-31T02:57:04;12.03;;;3.63;;
1380;SDS011;684;48.342;10.096;2023-07-31T02:59:31;10.50;;;3.30;;
1380;SDS011;684;48.342;10.096;2023-07-31T03:01:58;7.50;;;3.53;;
1380;SDS011;684;48.342;10.096;2023-07-31T03:04:24;6.27;;;2.93;;
1380;SDS011;684;48.342;10.096;2023-07-31T03:06:52;5.23;;;2.40;;
1380;SDS011;684;48.342;10.096;2023-07-31T03:09:19;8.00;;;3.00;;
1380;SDS011;684;48.342;10.096;2023-07-31T03:11:46;9.37;;;3.23;;
1380;SDS011;684;48.342;10.096;2023-07-31T03:14:12;7.47;;;2.70;;
1380;SDS011;684;48.342;10.096;2023-07-31T03:16:39;6.97;;;2.53;;
1380;SDS011;684;48.342;10.096;2023-07-31T03:19:06;5.10;;;2.87;;
1380;SDS011;684;48.342;10.096;2023-07-31T03:21:32;5.03;;;2.40;;
1380;SDS011;684;48.342;10.096;2023-07-31T03:24:00;6.20;;;3.17;;
1380;SDS011;684;48.342;10.096;2023-07-31T03:26:27;7.90;;;3.20;;
1380;SDS011;684;48.342;10.096;2023-07-31T03:28:54;6.00;;;2.93;;
1380;SDS011;684;48.342;10.096;2023-07-31T03:31:21;6.70;;;3.43;;
1380;SDS011;684;48.342;10.096;2023-07-31T03:33:48;7.03;;;3.20;;
1380;SDS011;684;48.342;10.096;2023-07-31T03:36:14;7.40;;;3.90;;
1380;SDS011;684;48.342;10.096;2023-07-31T03:38:41;6.93;;;2.90;;
1380;SDS011;684;48.342;10.096;2023-07-31T03:41:09;6.60;;;3.53;;
1380;SDS011;684;48.342;10.096;2023-07-31T03:43:36;8.20;;;3.23;;
1380;SDS011;684;48.342;10.096;2023-07-31T03:46:03;5.87;;;3.03;;
1380;SDS011;684;48.342;10.096;2023-07-31T03:48:30;5.80;;;2.93;;
1380;SDS011;684;48.342;10.096;2023-07-31T03:50:56;7.43;;;3.70;;
1380;SDS011;684;48.342;10.096;2023-07-31T03:53:23;10.50;;;3.10;;
1380;SDS011;684;48.342;10.096;2023-07-31T03:55:50;7.70;;;2.67;;
1380;SDS011;684;48.342;10.096;2023-07-31T03:58:18;6.80;;;2.60;;
1380;SDS011;684;48.342;10.096;2023-07-31T04:00:45;13.13;;;4.03;;
1380;SDS011;684;48.342;10.096;2023-07-31T04:03:11;6.20;;;3.30;;
1380;SDS011;684;48.342;10.096;2023-07-31T04:05:38;8.83;;;3.40;;
1380;SDS011;684;48.342;10.096;2023-07-31T04:08:05;16.23;;;3.50;;
1380;SDS011;684;48.342;10.096;2023-07-31T04:10:32;5.43;;;2.30;;
1380;SDS011;684;48.342;10.096;2023-07-31T04:12:59;6.20;;;2.90;;
1380;SDS011;684;48.342;10.096;2023-07-31T04:15:27;7.03;;;3.20;;
1380;SDS011;684;48.342;10.096;2023-07-31T04:17:54;8.00;;;4.77;;
1380;SDS011;684;48.342;10.096;2023-07-31T04:20:21;7.80;;;2.73;;
1380;SDS011;684;48.342;10.096;2023-07-31T04:22:48;5.37;;;3.07;;
1380;SDS011;684;48.342;10.096;2023-07-31T04:25:14;6.93;;;3.23;;
1380;SDS011;684;48.342;10.096;2023-07-31T04:27:41;10.40;;;2.80;;
1380;SDS011;684;48.342;10.096;2023-07-31T04:30:08;7.60;;;3.77;;
1380;SDS011;684;48.342;10.096;2023-07-31T04:32:36;6.57;;;3.00;;
1380;SDS011;684;48.342;10.096;2023-07-31T04:35:03;5.10;;;2.50;;
1380;SDS011;684;48.342;10.096;2023-07-31T04:37:30;7.07;;;3.10;;
1380;SDS011;684;48.342;10.096;2023-07-31T04:39:57;5.70;;;3.53;;
1380;SDS011;684;48.342;10.096;2023-07-31T04:42:24;8.63;;;3.10;;
1380;SDS011;684;48.342;10.096;2023-07-31T04:44:51;9.93;;;3.77;;
1380;SDS011;684;48.342;10.096;2023-07-31T04:47:18;9.17;;;3.10;;
1380;SDS011;684;48.342;10.096;2023-07-31T04:49:46;9.73;;;3.10;;
1380;SDS011;684;48.342;10.096;2023-07-31T04:52:13;8.27;;;2.33;;
1380;SDS011;684;48.342;10.096;2023-07-31T04:54:40;6.33;;;2.87;;
1380;SDS011;684;48.342;10.096;2023-07-31T04:57:06;8.20;;;3.30;;
1380;SDS011;684;48.342;10.096;2023-07-31T04:59:33;8.97;;;3.50;;
1380;SDS011;684;48.342;10.096;2023-07-31T05:02:00;8.23;;;2.70;;
1380;SDS011;684;48.342;10.096;2023-07-31T05:04:26;7.43;;;2.80;;
1380;SDS011;684;48.342;10.096;2023-07-31T05:06:54;5.87;;;2.40;;
1380;SDS011;684;48.342;10.096;2023-07-31T05:09:21;8.70;;;2.73;;
1380;SDS011;684;48.342;10.096;2023-07-31T05:11:48;4.63;;;2.80;;
1380;SDS011;684;48.342;10.096;2023-07-31T05:14:14;7.37;;;2.90;;
1380;SDS011;684;48.342;10.096;2023-07-31T05:16:41;9.70;;;2.90;;
1380;SDS011;684;48.342;10.096;2023-07-31T05:19:08;7.47;;;2.40;;
1380;SDS011;684;48.342;10.096;2023-07-31T05:21:35;5.90;;;2.93;;
1380;SDS011;684;48.342;10.096;2023-07-31T05:24:03;6.90;;;3.27;;
1380;SDS011;684;48.342;10.096;2023-07-31T05:26:30;7.20;;;2.63;;
1380;SDS011;684;48.342;10.096;2023-07-31T05:28:56;5.30;;;2.50;;
1380;SDS011;684;48.342;10.096;2023-07-31T05:31:23;4.83;;;2.50;;
1380;SDS011;684;48.342;10.096;2023-07-31T05:33:50;10.60;;;3.57;;
1380;SDS011;684;48.342;10.096;2023-07-31T05:36:17;6.67;;;2.87;;
1380;SDS011;684;48.342;10.096;2023-07-31T05:38:43;5.47;;;2.80;;
1380;SDS011;684;48.342;10.096;2023-07-31T05:41:12;4.87;;;2.43;;
1380;SDS011;684;48.342;10.096;2023-07-31T05:43:39;5.33;;;2.30;;
1380;SDS011;684;48.342;10.096;2023-07-31T05:46:06;7.13;;;3.17;;
1380;SDS011;684;48.342;10.096;2023-07-31T05:48:34;7.23;;;3.70;;
1380;SDS011;684;48.342;10.096;2023-07-31T05:51:00;7.77;;;2.97;;
1380;SDS011;684;48.342;10.096;2023-07-31T05:53:27;6.10;;;2.57;;
1380;SDS011;684;48.342;10.096;2023-07-31T05:55:54;5.93;;;2.40;;
1380;SDS011;684;48.342;10.096;2023-07-31T05:58:22;6.43;;;3.67;;
1380;SDS011;684;48.342;10.096;2023-07-31T06:00:49;7.63;;;2.80;;
1380;SDS011;684;48.342;10.096;2023-07-31T06:03:16;7.30;;;2.87;;
1380;SDS011;684;48.342;10.096;2023-07-31T06:05:43;6.00;;;2.30;;
1380;SDS011;684;48.342;10.096;2023-07-31T06:08:09;6.07;;;2.40;;
1380;SDS011;684;48.342;10.096;2023-07-31T06:10:36;6.37;;;2.60;;
1380;SDS011;684;48.342;10.096;2023-07-31T06:13:03;6.10;;;2.20;;
1380;SDS011;684;48.342;10.096;2023-07-31T06:15:31;4.70;;;2.03;;
1380;SDS011;684;48.342;10.096;2023-07-31T06:17:58;4.77;;;2.00;;
1380;SDS011;684;48.342;10.096;2023-07-31T06:20:27;5.13;;;1.90;;
1380;SDS011;684;48.342;10.096;2023-07-31T06:22:53;5.13;;;2.53;;
1380;SDS011;684;48.342;10.096;2023-07-31T06:25:20;6.30;;;2.20;;
1380;SDS011;684;48.342;10.096;2023-07-31T06:27:47;4.77;;;2.07;;
1380;SDS011;684;48.342;10.096;2023-07-31T06:30:14;5.63;;;2.37;;
1380;SDS011;684;48.342;10.096;2023-07-31T06:32:42;7.37;;;2.70;;
1380;SDS011;684;48.342;10.096;2023-07-31T06:35:08;7.00;;;3.00;;
1380;SDS011;684;48.342;10.096;2023-07-31T06:37:35;6.23;;;2.33;;
1380;SDS011;684;48.342;10.096;2023-07-31T06:40:02;6.90;;;2.40;;
1380;SDS011;684;48.342;10.096;2023-07-31T06:42:30;9.50;;;2.70;;
1380;SDS011;684;48.342;10.096;2023-07-31T06:44:57;7.63;;;1.97;;
1380;SDS011;684;48.342;10.096;2023-07-31T06:47:24;5.83;;;2.57;;
1380;SDS011;684;48.342;10.096;2023-07-31T06:49:52;4.50;;;1.90;;
1380;SDS011;684;48.342;10.096;2023-07-31T06:52:19;9.57;;;2.30;;
1380;SDS011;684;48.342;10.096;2023-07-31T06:54:56;4.70;;;2.27;;
1380;SDS011;684;48.342;10.096;2023-07-31T06:57:27;11.53;;;3.10;;
1380;SDS011;684;48.342;10.096;2023-07-31T06:59:54;10.27;;;2.93;;
1380;SDS011;684;48.342;10.096;2023-07-31T07:02:21;5.80;;;2.60;;
1380;SDS011;684;48.342;10.096;2023-07-31T07:04:48;5.73;;;2.70;;
1380;SDS011;684;48.342;10.096;2023-07-31T07:07:17;5.50;;;2.03;;
1380;SDS011;684;48.342;10.096;2023-07-31T07:09:44;5.47;;;2.30;;
1380;SDS011;684;48.342;10.096;2023-07-31T07:12:11;7.07;;;2.80;;
1380;SDS011;684;48.342;10.096;2023-07-31T07:14:37;5.90;;;2.37;;
1380;SDS011;684;48.342;10.096;2023-07-31T07:17:04;5.43;;;2.50;;
1380;SDS011;684;48.342;10.096;2023-07-31T07:19:31;7.27;;;3.93;;
1380;SDS011;684;48.342;10.096;2023-07-31T07:21:58;6.40;;;2.90;;
1380;SDS011;684;48.342;10.096;2023-07-31T07:24:28;4.40;;;2.30;;
1380;SDS011;684;48.342;10.096;2023-07-31T07:26:55;7.40;;;2.70;;
1380;SDS011;684;48.342;10.096;2023-07-31T07:29:21;6.50;;;2.57;;
1380;SDS011;684;48.342;10.096;2023-07-31T07:31:49;8.13;;;2.80;;
1380;SDS011;684;48.342;10.096;2023-07-31T07:34:16;6.37;;;2.67;;
1380;SDS011;684;48.342;10.096;2023-07-31T07:36:43;8.40;;;3.57;;
1380;SDS011;684;48.342;10.096;2023-07-31T07:39:10;5.20;;;2.40;;
1380;SDS011;684;48.342;10.096;2023-07-31T07:41:38;6.80;;;2.30;;
1380;SDS011;684;48.342;10.096;2023-07-31T07:44:05;7.40;;;2.63;;
1380;SDS011;684;48.342;10.096;2023-07-31T07:46:31;4.77;;;1.70;;
1380;SDS011;684;48.342;10.096;2023-07-31T07:48:58;6.23;;;2.20;;
1380;SDS011;684;48.342;10.096;2023-07-31T07:51:25;7.60;;;2.17;;
1380;SDS011;684;48.342;10.096;2023-07-31T07:53:52;7.13;;;2.10;;
1380;SDS011;684;48.342;10.096;2023-07-31T07:56:18;5.50;;;2.07;;
1380;SDS011;684;48.342;10.096;2023-07-31T07:58:49;6.43;;;3.23;;
1380;SDS011;684;48.342;10.096;2023-07-31T08:01:16;5.43;;;2.10;;
1380;SDS011;684;48.342;10.096;2023-07-31T08:03:43;7.43;;;2.70;;
1380;SDS011;684;48.342;10.096;2023-07-31T08:06:09;5.17;;;2.03;;
1380;SDS011;684;48.342;10.096;2023-07-31T08:08:36;4.90;;;2.00;;
1380;SDS011;684;48.342;10.096;2023-07-31T08:11:04;5.73;;;1.90;;
1380;SDS011;684;48.342;10.096;2023-07-31T08:13:31;7.40;;;1.97;;
1380;SDS011;684;48.342;10.096;2023-07-31T08:15:59;3.93;;;1.40;;
1380;SDS011;684;48.342;10.096;2023-07-31T08:18:25;7.17;;;1.90;;
1380;SDS011;684;48.342;10.096;2023-07-31T08:20:52;4.80;;;1.93;;
1380;SDS011;684;48.342;10.096;2023-07-31T08:23:19;3.80;;;1.30;;
1380;SDS011;684;48.342;10.096;2023-07-31T08:25:45;4.80;;;1.87;;
1380;SDS011;684;48.342;10.096;2023-07-31T08:28:14;6.37;;;2.40;;
1380;SDS011;684;48.342;10.096;2023-07-31T08:30:41;6.30;;;2.00;;
1380;SDS011;684;48.342;10.096;2023-07-31T08:33:09;7.70;;;1.80;;
1380;SDS011;684;48.342;10.096;2023-07-31T08:35:38;6.33;;;2.00;;
1380;SDS011;684;48.342;10.096;2023-07-31T08:38:05;6.77;;;2.07;;
1380;SDS011;684;48.342;10.096;2023-07-31T08:40:31;5.23;;;2.50;;
1380;SDS011;684;48.342;10.096;2023-07-31T08:43:01;4.77;;;2.00;;
1380;SDS011;684;48.342;10.096;2023-07-31T08:45:28;7.13;;;2.50;;
1380;SDS011;684;48.342;10.096;2023-07-31T08:47:56;4.50;;;2.00;;
1380;SDS011;684;48.342;10.096;2023-07-31T08:50:24;4.73;;;1.90;;
1380;SDS011;684;48.342;10.096;2023-07-31T08:52:52;6.13;;;1.77;;
1380;SDS011;684;48.342;10.096;2023-07-31T08:55:19;6.10;;;1.80;;
1380;SDS011;684;48.342;10.096;2023-07-31T08:57:48;6.90;;;1.70;;
1380;SDS011;684;48.342;10.096;2023-07-31T09:00:18;6.90;;;1.80;;
1380;SDS011;684;48.342;10.096;2023-07-31T09:02:50;5.63;;;2.13;;
1380;SDS011;684;48.342;10.096;2023-07-31T09:05:21;4.77;;;1.60;;
1380;SDS011;684;48.342;10.096;2023-07-31T09:07:52;4.87;;;1.83;;
1380;SDS011;684;48.342;10.096;2023-07-31T09:10:20;4.50;;;1.90;;
1380;SDS011;684;48.342;10.096;2023-07-31T09:12:47;6.43;;;1.90;;
1380;SDS011;684;48.342;10.096;2023-07-31T09:15:15;3.90;;;1.97;;
1380;SDS011;684;48.342;10.096;2023-07-31T09:17:42;4.37;;;1.77;;
1380;SDS011;684;48.342;10.096;2023-07-31T09:20:16;4.00;;;1.47;;
1380;SDS011;684;48.342;10.096;2023-07-31T09:22:45;5.97;;;2.33;;
1380;SDS011;684;48.342;10.096;2023-07-31T09:25:16;4.47;;;1.60;;
1380;SDS011;684;48.342;10.096;2023-07-31T09:27:47;6.60;;;2.03;;
1380;SDS011;684;48.342;10.096;2023-07-31T09:30:15;4.20;;;1.87;;
1380;SDS011;684;48.342;10.096;2023-07-31T09:32:43;4.57;;;2.23;;
1380;SDS011;684;48.342;10.096;2023-07-31T09:35:14;5.50;;;1.90;;
1380;SDS011;684;48.342;10.096;2023-07-31T09:37:51;3.77;;;1.40;;
1380;SDS011;684;48.342;10.096;2023-07-31T09:40:25;5.13;;;1.80;;
1380;SDS011;684;48.342;10.096;2023-07-31T09:42:53;4.37;;;1.63;;
1380;SDS011;684;48.342;10.096;2023-07-31T09:45:20;5.57;;;2.00;;
1380;SDS011;684;48.342;10.096;2023-07-31T09:47:47;7.13;;;2.00;;
1380;SDS011;684;48.342;10.096;2023-07-31T09:50:14;5.10;;;1.73;;
1380;SDS011;684;48.342;10.096;2023-07-31T09:52:41;9.40;;;2.13;;
1380;SDS011;684;48.342;10.096;2023-07-31T09:55:09;5.60;;;1.63;;
1380;SDS011;684;48.342;10.096;2023-07-31T09:57:37;7.50;;;2.10;;
1380;SDS011;684;48.342;10.096;2023-07-31T10:00:06;5.57;;;1.90;;
1380;SDS011;684;48.342;10.096;2023-07-31T10:02:34;5.40;;;1.77;;
1380;SDS011;684;48.342;10.096;2023-07-31T10:05:02;6.27;;;1.97;;
1380;SDS011;684;48.342;10.096;2023-07-31T10:07:30;4.90;;;1.53;;
1380;SDS011;684;48.342;10.096;2023-07-31T10:10:00;4.70;;;1.70;;
1380;SDS011;684;48.342;10.096;2023-07-31T10:12:28;5.17;;;2.00;;
1380;SDS011;684;48.342;10.096;2023-07-31T10:14:57;7.73;;;2.07;;
1380;SDS011;684;48.342;10.096;2023-07-31T10:17:26;4.33;;;1.63;;
1380;SDS011;684;48.342;10.096;2023-07-31T10:19:54;5.30;;;1.70;;
1380;SDS011;684;48.342;10.096;2023-07-31T10:22:22;4.13;;;1.87;;
1380;SDS011;684;48.342;10.096;2023-07-31T10:24:50;5.83;;;1.97;;
1380;SDS011;684;48.342;10.096;2023-07-31T10:27:18;4.60;;;1.87;;
1380;SDS011;684;48.342;10.096;2023-07-31T10:29:48;4.60;;;2.17;;
1380;SDS011;684;48.342;10.096;2023-07-31T10:32:15;4.30;;;2.00;;
1380;SDS011;684;48.342;10.096;2023-07-31T10:34:43;4.43;;;1.93;;
1380;SDS011;684;48.342;10.096;2023-07-31T10:37:20;5.83;;;1.93;;
1380;SDS011;684;48.342;10.096;2023-07-31T10:39:58;6.30;;;1.80;;
1380;SDS011;684;48.342;10.096;2023-07-31T10:42:32;5.93;;;2.17;;
1380;SDS011;684;48.342;10.096;2023-07-31T10:45:02;5.10;;;1.93;;
1380;SDS011;684;48.342;10.096;2023-07-31T10:47:31;5.33;;;1.70;;
1380;SDS011;684;48.342;10.096;2023-07-31T10:50:12;5.00;;;2.20;;
1380;SDS011;684;48.342;10.096;2023-07-31T10:52:44;5.57;;;1.70;;
1380;SDS011;684;48.342;10.096;2023-07-31T10:57:58;6.53;;;2.13;;
1380;SDS011;684;48.342;10.096;2023-07-31T11:00:33;5.33;;;1.80;;
1380;SDS011;684;48.342;10.096;2023-07-31T11:03:03;6.27;;;2.13;;
1380;SDS011;684;48.342;10.096;2023-07-31T11:05:41;5.83;;;2.27;;
1380;SDS011;684;48.342;10.096;2023-07-31T11:08:12;3.80;;;1.20;;
1380;SDS011;684;48.342;10.096;2023-07-31T11:10:40;4.10;;;1.50;;
1380;SDS011;684;48.342;10.096;2023-07-31T11:13:07;4.30;;;1.53;;
1380;SDS011;684;48.342;10.096;2023-07-31T11:15:35;3.97;;;1.80;;
1380;SDS011;684;48.342;10.096;2023-07-31T11:18:02;5.60;;;1.90;;
1380;SDS011;684;48.342;10.096;2023-07-31T11:20:30;7.30;;;2.10;;
1380;SDS011;684;48.342;10.096;2023-07-31T11:22:58;4.50;;;1.53;;
1380;SDS011;684;48.342;10.096;2023-07-31T11:25:26;7.27;;;1.87;;
1380;SDS011;684;48.342;10.096;2023-07-31T11:27:55;4.53;;;1.70;;
1380;SDS011;684;48.342;10.096;2023-07-31T11:30:22;4.77;;;1.90;;
1380;SDS011;684;48.342;10.096;2023-07-31T11:32:50;5.00;;;1.90;;
1380;SDS011;684;48.342;10.096;2023-07-31T11:35:17;6.23;;;2.03;;
1380;SDS011;684;48.342;10.096;2023-07-31T11:37:44;6.03;;;1.93;;
1380;SDS011;684;48.342;10.096;2023-07-31T11:40:11;6.30;;;2.00;;
1380;SDS011;684;48.342;10.096;2023-07-31T11:42:38;4.93;;;1.90;;
1380;SDS011;684;48.342;10.096;2023-07-31T11:45:05;4.70;;;1.80;;
1380;SDS011;684;48.342;10.096;2023-07-31T11:47:33;6.50;;;2.23;;
1380;SDS011;684;48.342;10.096;2023-07-31T11:50:02;5.00;;;1.93;;
1380;SDS011;684;48.342;10.096;2023-07-31T11:52:30;5.70;;;1.90;;
1380;SDS011;684;48.342;10.096;2023-07-31T11:54:59;6.40;;;2.40;;
1380;SDS011;684;48.342;10.096;2023-07-31T11:57:26;5.83;;;2.00;;
1380;SDS011;684;48.342;10.096;2023-07-31T11:59:54;5.57;;;1.80;;
1380;SDS011;684;48.342;10.096;2023-07-31T12:02:23;4.80;;;2.00;;
1380;SDS011;684;48.342;10.096;2023-07-31T12:04:50;7.07;;;2.10;;
1380;SDS011;684;48.342;10.096;2023-07-31T12:07:18;4.80;;;2.17;;
1380;SDS011;684;48.342;10.096;2023-07-31T12:09:51;5.73;;;2.17;;
1380;SDS011;684;48.342;10.096;2023-07-31T12:12:22;5.67;;;1.90;;
1380;SDS011;684;48.342;10.096;2023-07-31T12:14:49;6.90;;;2.27;;
1380;SDS011;684;48.342;10.096;2023-07-31T12:17:16;5.97;;;2.40;;
1380;SDS011;684;48.342;10.096;2023-07-31T12:19:44;4.77;;;2.10;;
1380;SDS011;684;48.342;10.096;2023-07-31T12:22:11;5.60;;;2.20;;
1380;SDS011;684;48.342;10.096;2023-07-31T12:24:41;5.17;;;2.00;;
1380;SDS011;684;48.342;10.096;2023-07-31T12:27:10;8.07;;;2.63;;
1380;SDS011;684;48.342;10.096;2023-07-31T12:29:37;9.53;;;2.63;;
1380;SDS011;684;48.342;10.096;2023-07-31T12:32:17;8.93;;;2.40;;
1380;SDS011;684;48.342;10.096;2023-07-31T12:34:45;6.37;;;2.20;;
1380;SDS011;684;48.342;10.096;2023-07-31T12:37:12;5.73;;;2.20;;
1380;SDS011;684;48.342;10.096;2023-07-31T12:39:40;4.80;;;1.80;;
1380;SDS011;684;48.342;10.096;2023-07-31T12:42:07;8.47;;;2.10;;
1380;SDS011;684;48.342;10.096;2023-07-31T12:44:33;6.90;;;2.20;;
1380;SDS011;684;48.342;10.096;2023-07-31T12:47:00;6.10;;;2.57;;
1380;SDS011;684;48.342;10.096;2023-07-31T12:49:27;9.47;;;3.00;;
1380;SDS011;684;48.342;10.096;2023-07-31T12:51:54;7.83;;;2.70;;
1380;SDS011;684;48.342;10.096;2023-07-31T12:54:21;5.63;;;2.17;;
1380;SDS011;684;48.342;10.096;2023-07-31T12:56:49;6.80;;;2.03;;
1380;SDS011;684;48.342;10.096;2023-07-31T12:59:15;8.60;;;3.10;;
1380;SDS011;684;48.342;10.096;2023-07-31T13:01:42;6.00;;;2.60;;
1380;SDS011;684;48.342;10.096;2023-07-31T13:04:09;4.53;;;1.93;;
1380;SDS011;684;48.342;10.096;2023-07-31T13:06:35;7.20;;;2.50;;
1380;SDS011;684;48.342;10.096;2023-07-31T13:09:02;7.43;;;2.63;;
1380;SDS011;684;48.342;10.096;2023-07-31T13:11:29;6.30;;;2.80;;
1380;SDS011;684;48.342;10.096;2023-07-31T13:13:57;8.13;;;2.97;;
1380;SDS011;684;48.342;10.096;2023-07-31T13:16:24;4.90;;;2.13;;
1380;SDS011;684;48.342;10.096;2023-07-31T13:18:51;6.60;;;2.40;;
1380;SDS011;684;48.342;10.096;2023-07-31T13:21:18;6.50;;;2.10;;
1380;SDS011;684;48.342;10.096;2023-07-31T13:23:46;6.90;;;2.60;;
1380;SDS011;684;48.342;10.096;2023-07-31T13:26:13;4.77;;;2.30;;
1380;SDS011;684;48.342;10.096;2023-07-31T13:28:40;4.70;;;2.20;;
1380;SDS011;684;48.342;10.096;2023-07-31T13:31:08;8.03;;;2.30;;
1380;SDS011;684;48.342;10.096;2023-07-31T13:33:36;6.33;;;2.80;;
1380;SDS011;684;48.342;10.096;2023-07-31T13:36:02;6.40;;;2.90;;
1380;SDS011;684;48.342;10.096;2023-07-31T13:38:30;6.57;;;2.53;;
1380;SDS011;684;48.342;10.096;2023-07-31T13:40:56;7.50;;;2.30;;
1380;SDS011;684;48.342;10.096;2023-07-31T13:43:23;7.63;;;2.63;;
1380;SDS011;684;48.342;10.096;2023-07-31T13:45:50;5.67;;;2.67;;
1380;SDS011;684;48.342;10.096;2023-07-31T13:48:18;7.27;;;3.17;;
1380;SDS011;684;48.342;10.096;2023-07-31T13:50:45;7.10;;;3.20;;
1380;SDS011;684;48.342;10.096;2023-07-31T13:53:14;6.60;;;2.90;;
1380;SDS011;684;48.342;10.096;2023-07-31T13:55:40;10.00;;;2.90;;
1380;SDS011;684;48.342;10.096;2023-07-31T13:58:10;6.70;;;3.83;;
1380;SDS011;684;48.342;10.096;2023-07-31T14:00:37;6.83;;;2.77;;
1380;SDS011;684;48.342;10.096;2023-07-31T14:03:03;8.17;;;3.30;;
1380;SDS011;684;48.342;10.096;2023-07-31T14:05:31;6.50;;;2.90;;
1380;SDS011;684;48.342;10.096;2023-07-31T14:07:58;7.03;;;3.23;;
1380;SDS011;684;48.342;10.096;2023-07-31T14:10:25;6.53;;;2.53;;
1380;SDS011;684;48.342;10.096;2023-07-31T14:12:51;7.57;;;2.90;;
1380;SDS011;684;48.342;10.096;2023-07-31T14:15:18;5.90;;;2.80;;
1380;SDS011;684;48.342;10.096;2023-07-31T14:17:45;8.23;;;2.90;;
1380;SDS011;684;48.342;10.096;2023-07-31T14:20:12;6.37;;;2.60;;
1380;SDS011;684;48.342;10.096;2023-07-31T14:22:40;5.87;;;2.37;;
1380;SDS011;684;48.342;10.096;2023-07-31T14:25:07;6.20;;;2.40;;
1380;SDS011;684;48.342;10.096;2023-07-31T14:27:35;8.63;;;3.10;;
1380;SDS011;684;48.342;10.096;2023-07-31T14:30:02;9.43;;;2.30;;
1380;SDS011;684;48.342;10.096;2023-07-31T14:32:29;5.67;;;2.57;;
1380;SDS011;684;48.342;10.096;2023-07-31T14:34:56;8.40;;;2.70;;
1380;SDS011;684;48.342;10.096;2023-07-31T14:37:25;6.60;;;2.87;;
1380;SDS011;684;48.342;10.096;2023-07-31T14:39:53;8.07;;;3.43;;
1380;SDS011;684;48.342;10.096;2023-07-31T14:42:21;12.20;;;3.77;;
1380;SDS011;684;48.342;10.096;2023-07-31T14:44:47;5.40;;;2.47;;
1380;SDS011;684;48.342;10.096;2023-07-31T14:47:14;8.83;;;3.17;;
1380;SDS011;684;48.342;10.096;2023-07-31T14:49:41;9.63;;;3.73;;
1380;SDS011;684;48.342;10.096;2023-07-31T14:52:07;5.70;;;2.30;;
1380;SDS011;684;48.342;10.096;2023-07-31T14:54:34;5.77;;;2.50;;
1380;SDS011;684;48.342;10.096;2023-07-31T14:57:02;6.87;;;2.50;;
1380;SDS011;684;48.342;10.096;2023-07-31T14:59:29;8.03;;;3.03;;
1380;SDS011;684;48.342;10.096;2023-07-31T15:01:56;6.03;;;2.67;;
1380;SDS011;684;48.342;10.096;2023-07-31T15:04:23;5.90;;;3.20;;
1380;SDS011;684;48.342;10.096;2023-07-31T15:06:49;6.30;;;2.73;;
1380;SDS011;684;48.342;10.096;2023-07-31T15:09:16;5.40;;;2.67;;
1380;SDS011;684;48.342;10.096;2023-07-31T15:11:43;5.67;;;2.40;;
1380;SDS011;684;48.342;10.096;2023-07-31T15:14:11;4.43;;;2.37;;
1380;SDS011;684;48.342;10.096;2023-07-31T15:16:38;5.80;;;2.73;;
1380;SDS011;684;48.342;10.096;2023-07-31T15:19:05;6.87;;;3.00;;
1380;SDS011;684;48.342;10.096;2023-07-31T15:21:31;7.33;;;2.90;;
1380;SDS011;684;48.342;10.096;2023-07-31T15:23:58;6.83;;;2.60;;
1380;SDS011;684;48.342;10.096;2023-07-31T15:26:25;5.80;;;2.53;;